Time;durP1;ratioP1;P1;durP2;ratioP2;P2;SDS_P1;SDS_P2;PMS_P1;PMS_P2;Temp;Humidity;BMP_temperature;BMP_pressure;BME280_temperature;BME280_humidity;BME280_pressure;Samples;Min_cycle;Max_cycle;Signal;HPM_P1;HPM_P2
2022/02/02 00:00:39;;;;;;;36.35;4.25;;;;;;;5.72;80.92;100736.38;2056976;28;45198;-72
2022/02/02 00:01:54;;;;;;;30.02;4.18;;;;;;;5.72;79.63;100736.38;2055561;28;42280;-73
2022/02/02 00:03:05;;;;;;;27.85;3.42;;;;;;;5.73;80.73;100741.69;2065162;28;44363;-72
2022/02/02 00:04:12;;;;;;;33.78;3.58;;;;;;;5.73;80.97;100760.28;2071049;28;46495;-72
2022/02/02 00:06:26;;;;;;;27.48;3.95;;;;;;;5.70;81.79;100752.31;2071585;28;45586;-72
2022/02/02 00:07:35;;;;;;;27.33;3.17;;;;;;;5.70;81.96;100744.34;2071620;28;44485;-72
2022/02/02 00:08:52;;;;;;;39.20;3.42;;;;;;;5.68;81.44;100748.78;2071990;28;42929;-72
2022/02/02 00:10:01;;;;;;;31.88;3.65;;;;;;;5.68;82.35;100743.47;2071029;28;44022;-72
2022/02/02 00:12:14;;;;;;;28.30;4.28;;;;;;;5.66;82.01;100749.69;2071439;28;45855;-72
2022/02/02 00:13:39;;;;;;;27.63;3.58;;;;;;;5.65;82.43;100743.50;2072079;28;40283;-72
2022/02/02 00:16:10;;;;;;;31.35;4.13;;;;;;;5.64;82.21;100747.03;2071577;28;44929;-72
2022/02/02 00:17:16;;;;;;;27.50;3.47;;;;;;;5.66;83.10;100766.50;2071817;28;43111;-72
2022/02/02 00:20:49;;;;;;;25.40;2.80;;;;;;;5.64;83.18;100804.59;2062921;28;43885;-72
2022/02/02 00:21:57;;;;;;;24.08;3.60;;;;;;;5.58;83.93;100810.84;2058122;28;43805;-72
2022/02/02 00:23:01;;;;;;;33.30;3.60;;;;;;;5.57;83.36;100811.72;2066147;28;42980;-72
2022/02/02 00:24:11;;;;;;;28.60;3.53;;;;;;;5.55;83.99;100817.03;2062567;28;45144;-72
2022/02/02 00:26:21;;;;;;;26.52;3.15;;;;;;;5.51;84.62;100801.13;2071489;28;43046;-72
2022/02/02 00:27:24;;;;;;;24.27;2.78;;;;;;;5.48;83.32;100798.47;2071536;28;44088;-72
2022/02/02 00:28:33;;;;;;;25.27;3.15;;;;;;;5.44;83.42;100802.91;2071366;28;44577;-72
2022/02/02 00:29:43;;;;;;;26.73;2.97;;;;;;;5.43;82.99;100802.91;2071527;28;45413;-72
2022/02/02 00:30:45;;;;;;;26.58;3.10;;;;;;;5.42;83.05;100798.50;2054337;28;46158;-72
2022/02/02 00:31:54;;;;;;;25.75;3.20;;;;;;;5.41;83.01;100802.06;2056144;28;43132;-72
2022/02/02 00:34:05;;;;;;;24.52;2.92;;;;;;;5.34;84.31;100806.50;2063782;28;44837;-72
2022/02/02 00:35:08;;;;;;;24.75;2.55;;;;;;;5.30;82.64;100795.00;2063384;28;45278;-72
2022/02/02 00:36:15;;;;;;;25.98;2.85;;;;;;;5.28;83.39;100802.09;2063244;28;46110;-72
2022/02/02 00:37:17;;;;;;;24.58;2.90;;;;;;;5.25;83.24;100799.44;2063159;28;43317;-72
2022/02/02 00:38:19;;;;;;;20.55;2.78;;;;;;;5.25;83.87;100796.78;2063506;28;44476;-72
2022/02/02 00:39:23;;;;;;;26.90;3.22;;;;;;;5.23;82.78;100792.38;2063360;28;42193;-72
2022/02/02 00:40:25;;;;;;;27.02;3.22;;;;;;;5.21;81.98;100797.69;2063673;28;45326;-72
2022/02/02 00:41:27;;;;;;;23.35;3.38;;;;;;;5.19;82.47;100809.19;2062894;28;46066;-72
2022/02/02 00:42:29;;;;;;;26.33;3.17;;;;;;;5.18;81.75;100800.34;2063107;28;42670;-72
2022/02/02 00:43:31;;;;;;;23.38;2.75;;;;;;;5.18;83.16;100799.47;2063147;28;44474;-72
2022/02/02 00:44:54;;;;;;;24.10;2.88;;;;;;;5.17;81.20;100803.91;2063444;28;44971;-72
2022/02/02 00:45:57;;;;;;;27.83;2.65;;;;;;;5.16;80.37;100786.19;2063649;28;44185;-72
2022/02/02 00:46:59;;;;;;;24.45;2.50;;;;;;;5.19;80.97;100793.25;2063452;28;41416;-71
2022/02/02 00:48:01;;;;;;;22.85;2.40;;;;;;;5.15;80.54;100801.25;2063472;28;45516;-72
2022/02/02 00:49:05;;;;;;;23.98;2.53;;;;;;;5.12;81.28;100800.38;2063411;28;43847;-71
2022/02/02 00:50:07;;;;;;;27.48;3.10;;;;;;;5.11;80.78;100810.09;2064006;28;25809;-72
2022/02/02 00:51:09;;;;;;;17.25;2.28;;;;;;;5.11;80.19;100804.78;2062240;28;42971;-72
2022/02/02 00:52:13;;;;;;;24.40;2.75;;;;;;;5.14;78.87;100798.59;2063158;28;45304;-72
2022/02/02 00:53:17;;;;;;;19.92;2.42;;;;;;;5.18;79.83;100805.66;2063178;28;45344;-72
2022/02/02 00:54:24;;;;;;;19.05;2.80;;;;;;;5.17;79.91;100801.25;2063501;28;44404;-72
2022/02/02 00:55:26;;;;;;;17.73;2.50;;;;;;;5.24;79.54;100810.97;2063194;28;44951;-72
2022/02/02 00:56:28;;;;;;;24.02;2.92;;;;;;;5.22;77.74;100795.91;2063497;28;44368;-72
2022/02/02 00:57:32;;;;;;;20.52;2.70;;;;;;;5.20;77.86;100793.25;2063107;28;45239;-72
2022/02/02 00:58:36;;;;;;;23.75;2.65;;;;;;;5.20;78.06;100806.53;2063330;28;43721;-72
2022/02/02 00:59:37;;;;;;;22.08;2.40;;;;;;;5.21;78.81;100804.78;2063054;28;42890;-72
2022/02/02 01:00:39;;;;;;;19.85;2.35;;;;;;;5.22;78.50;100809.19;2062674;28;46465;-72
2022/02/02 01:01:43;;;;;;;24.08;2.53;;;;;;;5.23;78.42;100814.50;2064374;28;20031;-72
2022/02/02 01:02:47;;;;;;;16.35;1.92;;;;;;;5.25;78.62;100817.16;2102374;23;44908;-74
2022/02/02 01:03:49;;;;;;;25.98;2.10;;;;;;;5.24;78.30;100800.34;2065458;28;40485;-73
2022/02/02 01:04:53;;;;;;;18.75;1.98;;;;;;;5.24;78.54;100807.41;2070678;28;45015;-73
2022/02/02 01:05:54;;;;;;;17.65;2.30;;;;;;;5.21;79.45;100810.97;2071091;28;46294;-74
2022/02/02 01:07:11;;;;;;;20.70;2.13;;;;;;;5.21;78.59;100808.31;2072193;28;20050;-73
2022/02/02 01:08:40;;;;;;;23.83;3.03;;;;;;;5.23;78.40;100814.50;2071220;28;44405;-72
2022/02/02 01:09:45;;;;;;;21.77;2.28;;;;;;;5.25;79.21;100802.09;2071281;28;43060;-72
2022/02/02 01:11:14;;;;;;;22.92;2.33;;;;;;;5.22;79.21;100814.50;2071257;28;44227;-72
2022/02/02 01:12:36;;;;;;;22.27;2.38;;;;;;;5.23;78.86;100803.88;2071851;28;20105;-72
2022/02/02 01:14:29;;;;;;;25.00;3.22;;;;;;;5.22;78.23;100820.66;2070163;28;44803;-71
2022/02/02 01:15:54;;;;;;;24.40;2.30;;;;;;;5.26;79.71;100813.63;2070939;28;42459;-72
2022/02/02 01:20:33;;;;;;;29.95;3.63;;;;;;;5.26;80.47;100797.69;2064972;28;42321;-73
2022/02/02 01:28:27;;;;;;;;;;;;;;;5.38;81.43;100794.09;2039844;29;42915;-73
2022/02/02 01:29:30;;;;;;;34.78;4.10;;;;;;;5.32;81.25;100798.53;2038529;29;43948;-73
2022/02/02 01:30:34;;;;;;;37.53;3.97;;;;;;;5.30;81.89;100797.66;2039220;29;42987;-73
2022/02/02 01:31:35;;;;;;;37.95;4.32;;;;;;;5.27;82.55;100800.31;2038830;29;45263;-73
2022/02/02 01:32:39;;;;;;;33.20;4.15;;;;;;;5.28;82.02;100796.78;2046682;28;41152;-73
2022/02/02 01:33:41;;;;;;;32.53;3.60;;;;;;;5.32;81.13;100797.66;2047561;28;45162;-72
2022/02/02 01:34:42;;;;;;;38.85;4.18;;;;;;;5.32;81.72;100782.59;2040947;29;45115;-73
2022/02/02 01:35:47;;;;;;;30.25;3.60;;;;;;;5.30;81.28;100792.34;2047409;28;20055;-72
2022/02/02 01:36:49;;;;;;;33.08;5.07;;;;;;;5.28;81.54;100786.16;2045824;28;44088;-72
2022/02/02 01:37:51;;;;;;;34.08;4.20;;;;;;;5.28;81.69;100791.47;2038926;29;43984;-73
2022/02/02 01:38:54;;;;;;;37.40;4.63;;;;;;;5.23;82.40;100790.59;2046734;28;37875;-73
2022/02/02 01:40:05;;;;;;;40.60;4.22;;;;;;;5.23;82.56;100776.47;2045818;28;43133;-74
2022/02/02 01:41:17;;;;;;;34.00;4.78;;;;;;;5.25;81.62;100802.09;2039164;28;44478;-73
2022/02/02 01:42:23;;;;;;;34.25;3.83;;;;;;;5.25;81.74;100801.22;2038684;29;45375;-73
2022/02/02 01:43:30;;;;;;;32.55;4.72;;;;;;;5.23;82.51;100803.88;2038791;29;46242;-72
2022/02/02 01:45:43;;;;;;;35.50;4.45;;;;;;;5.29;82.20;100808.28;2039664;29;20044;-72
2022/02/02 01:46:47;;;;;;;36.72;4.32;;;;;;;5.27;82.38;100813.59;2038688;29;44494;-72
2022/02/02 01:50:02;;;;;;;;;;;;;;;5.30;83.85;100826.84;2046674;28;46492;-72
2022/02/02 01:54:33;;;;;;;39.90;4.95;;;;;;;5.25;86.96;100851.66;2038318;29;43883;-74
2022/02/02 01:55:38;;;;;;;43.78;5.05;;;;;;;5.18;87.27;100847.25;2046650;28;33675;-74
2022/02/02 01:56:40;;;;;;;41.38;4.68;;;;;;;5.14;87.74;100846.38;2043150;28;44447;-74
2022/02/02 01:59:20;;;;;;;34.00;4.28;;;;;;;5.21;87.30;100879.09;2038766;29;45849;-73
2022/02/02 02:00:22;;;;;;;42.45;5.57;;;;;;;5.08;89.28;100884.41;2046449;28;43041;-75
2022/02/02 02:01:26;;;;;;;42.95;5.65;;;;;;;5.02;89.15;100888.84;2046680;28;20130;-76
2022/02/02 02:02:30;;;;;;;34.15;3.63;;;;;;;4.95;89.13;100904.78;2046423;28;44674;-75
2022/02/02 02:03:32;;;;;;;25.65;4.00;;;;;;;4.89;88.62;100902.13;2048040;28;33516;-74
2022/02/02 02:04:34;;;;;;;26.83;3.67;;;;;;;4.86;88.53;100910.06;2048836;28;46171;-73
2022/02/02 02:05:36;;;;;;;30.27;3.33;;;;;;;4.75;88.02;100903.88;2048413;28;43113;-74
2022/02/02 02:06:38;;;;;;;23.75;2.45;;;;;;;4.71;88.51;100892.38;2047084;28;44276;-74
2022/02/02 02:07:42;;;;;;;25.17;3.30;;;;;;;4.61;87.65;100903.00;2048955;28;20051;-73
2022/02/02 02:08:44;;;;;;;19.95;2.17;;;;;;;4.59;88.25;100917.16;2046951;28;43771;-74
2022/02/02 02:09:46;;;;;;;29.08;3.28;;;;;;;4.49;88.32;100910.06;2040520;29;46574;-74
2022/02/02 02:10:48;;;;;;;18.33;2.13;;;;;;;4.41;87.45;100879.97;2040150;28;43502;-74
2022/02/02 02:12:07;;;;;;;18.08;2.08;;;;;;;4.37;86.50;100884.41;2040035;29;44278;-74
2022/02/02 02:13:19;;;;;;;24.40;2.67;;;;;;;4.27;87.03;100887.03;2040511;28;36584;-74
2022/02/02 02:15:08;;;;;;;19.83;2.22;;;;;;;4.18;86.98;100875.53;2040156;29;45011;-73
2022/02/02 02:15:45;;;;;;;16.48;1.95;;;;;;;4.25;85.05;100888.78;2039381;28;40572;-74
2022/02/02 02:16:47;;;;;;;12.57;1.48;;;;;;;4.20;85.07;100892.31;2040236;29;44431;-74
2022/02/02 02:17:50;;;;;;;20.77;2.70;;;;;;;4.16;85.98;100889.66;2040224;29;43073;-74
2022/02/02 02:18:53;;;;;;;13.27;1.75;;;;;;;4.21;86.25;100877.31;2040052;29;44489;-74
2022/02/02 02:19:55;;;;;;;16.40;2.50;;;;;;;4.17;86.36;100879.06;2040038;29;43701;-74
2022/02/02 02:20:57;;;;;;;21.63;2.50;;;;;;;4.14;86.75;100879.03;2040436;29;36481;-74
2022/02/02 02:21:58;;;;;;;20.33;2.38;;;;;;;4.08;86.74;100879.03;2045963;28;42987;-74
2022/02/02 02:23:03;;;;;;;16.65;2.25;;;;;;;4.05;86.16;100871.09;2055667;28;46069;-74
2022/02/02 02:24:06;;;;;;;16.80;1.92;;;;;;;4.01;85.81;100856.94;2056752;28;20114;-73
2022/02/02 02:25:08;;;;;;;22.50;2.30;;;;;;;3.99;85.82;100873.72;2056072;28;44738;-74
2022/02/02 02:26:21;;;;;;;15.63;2.08;;;;;;;3.94;86.69;100880.78;2055916;28;45430;-74
2022/02/02 02:27:24;;;;;;;18.20;2.33;;;;;;;3.92;86.44;100879.88;2055892;28;43757;-74
2022/02/02 02:28:43;;;;;;;20.50;2.50;;;;;;;3.91;87.32;100872.81;2047464;28;44806;-73
2022/02/02 02:31:02;;;;;;;16.85;2.30;;;;;;;3.75;87.29;100864.81;2055723;28;44939;-74
2022/02/02 02:32:42;;;;;;;17.67;2.10;;;;;;;3.75;87.44;100863.91;2055312;28;42931;-73
2022/02/02 02:34:16;;;;;;;17.60;1.85;;;;;;;3.72;86.85;100869.22;2055155;28;46148;-74
2022/02/02 02:36:39;;;;;;;20.52;1.88;;;;;;;3.68;86.84;100870.97;2047125;28;43829;-72
2022/02/02 02:56:00;;;;;;;28.02;2.85;;;;;;;3.81;87.14;100887.78;2055945;28;44526;-73
2022/02/02 02:57:03;;;;;;;20.83;2.67;;;;;;;3.81;87.11;100893.09;2055151;28;45403;-73
2022/02/02 02:58:22;;;;;;;21.13;2.22;;;;;;;3.86;87.35;100885.13;2055610;28;43742;-74
2022/02/02 02:59:40;;;;;;;21.42;2.55;;;;;;;3.90;86.99;100886.94;2055673;28;43161;-73
2022/02/02 03:30:15;;;;;;;32.05;3.25;;;;;;;4.21;87.41;100928.53;2048023;28;20059;-73
2022/02/02 03:31:35;;;;;;;32.90;4.22;;;;;;;4.28;87.05;100936.50;2054712;28;46409;-73
2022/02/02 03:35:28;;;;;;;28.60;3.15;;;;;;;4.29;86.92;100928.56;2047815;28;45785;-73
2022/02/02 03:55:06;;;;;;;29.50;3.72;;;;;;;4.46;84.52;100947.16;2038467;29;46152;-73
2022/02/02 03:59:25;;;;;;;37.47;3.88;;;;;;;4.47;84.27;100953.34;2030199;29;45315;-72
2022/02/02 04:00:22;;;;;;;43.13;4.35;;;;;;;4.49;82.97;100952.47;2054237;28;44625;-73
2022/02/02 04:03:05;;;;;;;28.25;3.28;;;;;;;4.54;83.23;100961.31;2052297;28;42952;-73
2022/02/02 04:06:19;;;;;;;32.10;3.90;;;;;;;4.55;82.56;100952.47;2047814;28;42929;-73
2022/02/02 04:07:24;;;;;;;36.45;4.05;;;;;;;4.62;82.27;100963.09;2047939;28;20997;-72
2022/02/02 04:08:32;;;;;;;31.42;3.92;;;;;;;4.63;81.97;100947.22;2054848;28;44499;-73
2022/02/02 04:09:36;;;;;;;27.25;3.75;;;;;;;4.68;82.68;100942.75;2046744;28;42889;-73
2022/02/02 04:10:39;;;;;;;29.50;4.22;;;;;;;4.68;82.88;100941.88;2047484;28;45671;-73
2022/02/02 04:11:52;;;;;;;32.47;3.53;;;;;;;4.65;81.59;100953.38;2046160;28;45280;-73
2022/02/02 04:13:12;;;;;;;31.13;4.30;;;;;;;4.64;82.85;100956.03;2047345;28;46227;-73
2022/02/02 04:38:35;;;;;;;31.40;4.10;;;;;;;4.70;82.25;100975.50;2055722;28;43073;-72
2022/02/02 04:51:33;;;;;;;31.33;3.10;;;;;;;4.83;81.07;100972.84;2054990;28;46044;-72
2022/02/02 04:55:29;;;;;;;43.92;4.70;;;;;;;4.80;80.73;100981.69;2055329;28;43102;-72
2022/02/02 05:00:24;;;;;;;30.58;3.90;;;;;;;4.90;79.42;100994.09;2055063;28;20075;-72
2022/02/02 05:03:36;;;;;;;23.52;3.65;;;;;;;4.87;80.51;100996.72;2054782;28;44084;-72
2022/02/02 05:07:01;;;;;;;31.02;3.72;;;;;;;4.90;80.27;101006.44;2055068;28;46868;-72
2022/02/02 05:08:30;;;;;;;32.08;4.07;;;;;;;4.92;80.61;101005.59;2055029;28;42380;-72
2022/02/02 05:16:40;;;;;;;33.17;7.53;;;;;;;5.01;78.92;101038.31;2053483;28;46318;-72
2022/02/02 05:26:29;;;;;;;29.52;3.92;;;;;;;4.97;79.65;101059.56;2054109;28;44379;-72
2022/02/02 05:45:26;;;;;;;28.85;4.55;;;;;;;4.79;83.46;101078.06;2054204;28;44461;-73
2022/02/02 05:49:42;;;;;;;28.58;3.25;;;;;;;4.63;84.25;101084.19;2054537;28;45372;-74
2022/02/02 05:51:53;;;;;;;32.70;3.65;;;;;;;4.63;84.07;101095.72;2053838;28;43169;-74
2022/02/02 05:52:55;;;;;;;31.42;3.92;;;;;;;4.67;84.46;101099.25;2054714;28;45334;-74
2022/02/02 05:53:57;;;;;;;34.30;4.47;;;;;;;4.64;83.86;101110.72;2054082;28;43076;-73
2022/02/02 05:54:58;;;;;;;30.95;4.07;;;;;;;4.62;85.56;101107.19;2054557;28;43103;-74
2022/02/02 05:56:03;;;;;;;35.30;3.67;;;;;;;4.62;85.41;101116.91;2054530;28;43504;-74
2022/02/02 05:57:14;;;;;;;26.02;3.30;;;;;;;4.63;85.81;101114.28;2046621;28;44627;-74
2022/02/02 05:58:25;;;;;;;37.80;4.05;;;;;;;4.55;85.07;101116.88;2047392;28;46228;-73
2022/02/02 05:59:29;;;;;;;32.35;3.67;;;;;;;4.53;85.05;101113.31;2051688;28;44427;-76
2022/02/02 06:00:32;;;;;;;34.53;4.93;;;;;;;4.48;86.07;101120.38;2053526;28;21189;-75
2022/02/02 06:01:35;;;;;;;29.90;3.92;;;;;;;4.45;86.42;101115.06;2054685;28;42085;-73
2022/02/02 06:02:38;;;;;;;28.33;3.88;;;;;;;4.49;86.32;101126.56;2045406;28;45462;-73
2022/02/02 06:03:58;;;;;;;27.10;3.80;;;;;;;4.45;86.29;101136.28;2045978;28;45158;-73
2022/02/02 06:05:06;;;;;;;26.15;3.20;;;;;;;4.45;86.05;101136.28;2054586;28;41715;-73
2022/02/02 06:06:12;;;;;;;35.45;4.60;;;;;;;4.42;86.07;101136.25;2054457;28;20040;-71
2022/02/02 06:07:15;;;;;;;33.03;3.97;;;;;;;4.41;85.67;101139.78;2054369;28;44207;-73
2022/02/02 06:08:16;;;;;;;30.33;4.35;;;;;;;4.41;86.52;101139.78;2054497;28;44691;-72
2022/02/02 06:09:22;;;;;;;30.25;3.55;;;;;;;4.42;86.66;101133.59;2055061;28;44424;-73
2022/02/02 06:10:26;;;;;;;31.60;3.53;;;;;;;4.39;86.03;101137.09;2054815;28;20036;-73
2022/02/02 06:11:28;;;;;;;28.27;3.20;;;;;;;4.47;85.21;101136.25;2054448;28;43962;-72
2022/02/02 06:12:31;;;;;;;30.48;3.60;;;;;;;4.43;85.28;101132.72;2054032;28;44953;-72
2022/02/02 06:13:54;;;;;;;25.85;3.28;;;;;;;4.43;85.55;101148.63;2054619;28;44711;-73
2022/02/02 06:14:56;;;;;;;26.55;2.97;;;;;;;4.50;86.00;101137.16;2054218;28;42988;-73
2022/02/02 06:15:58;;;;;;;24.20;2.47;;;;;;;4.48;84.88;101153.97;2054906;28;44843;-73
2022/02/02 06:17:05;;;;;;;29.88;3.92;;;;;;;4.47;83.94;101147.78;2053884;28;43234;-73
2022/02/02 06:18:11;;;;;;;;;;;;;;;4.48;84.62;101146.00;2054717;28;46397;-74
2022/02/02 06:19:13;;;;;;;22.55;2.97;;;;;;;4.52;83.94;101148.69;2054910;28;44402;-73
2022/02/02 06:20:15;;;;;;;22.38;2.60;;;;;;;4.58;82.59;101161.97;2055160;28;43928;-73
2022/02/02 06:21:21;;;;;;;23.48;2.95;;;;;;;4.59;83.18;101157.53;2045918;28;41382;-74
2022/02/02 06:22:31;;;;;;;24.20;2.53;;;;;;;4.61;81.86;101158.44;2038754;28;45122;-73
2022/02/02 06:23:43;;;;;;;23.63;2.05;;;;;;;4.70;81.64;101181.47;2048048;28;44219;-73
2022/02/02 06:25:02;;;;;;;23.90;3.28;;;;;;;4.68;82.16;101162.00;2054110;28;41611;-73
2022/02/02 06:26:12;;;;;;;22.13;2.25;;;;;;;4.73;81.21;101178.84;2055379;28;44293;-73
2022/02/02 06:27:26;;;;;;;20.08;1.88;;;;;;;4.71;80.51;101189.44;2054577;28;44720;-73
2022/02/02 06:28:34;;;;;;;17.20;2.08;;;;;;;4.68;80.79;101185.88;2054564;28;43307;-73
2022/02/02 06:29:42;;;;;;;20.15;2.50;;;;;;;4.67;81.24;101195.59;2053471;28;45044;-73
2022/02/02 06:30:51;;;;;;;30.02;2.35;;;;;;;4.66;81.32;101192.94;2053961;28;44746;-73
2022/02/02 06:32:14;;;;;;;16.98;2.17;;;;;;;4.68;81.44;101196.47;2053846;28;45496;-72
2022/02/02 06:33:17;;;;;;;19.02;2.40;;;;;;;4.69;81.89;101192.97;2054564;28;39404;-73
2022/02/02 06:34:23;;;;;;;21.00;2.17;;;;;;;4.68;81.11;101200.03;2055162;28;41955;-73
2022/02/02 06:35:25;;;;;;;22.77;2.30;;;;;;;4.63;81.38;101199.13;2053718;28;45237;-73
2022/02/02 06:36:36;;;;;;;18.10;1.95;;;;;;;4.60;81.14;101199.09;2053871;28;45882;-73
2022/02/02 06:37:39;;;;;;;19.88;2.80;;;;;;;4.63;81.47;101190.25;2053756;28;44235;-73
2022/02/02 06:38:44;;;;;;;19.50;1.95;;;;;;;4.63;81.33;101199.13;2054002;28;46405;-73
2022/02/02 06:39:50;;;;;;;19.30;2.15;;;;;;;4.62;81.43;101196.47;2053562;28;44354;-73
2022/02/02 06:40:56;;;;;;;19.55;2.28;;;;;;;4.59;80.69;101208.84;2054005;28;45719;-73
2022/02/02 06:41:59;;;;;;;21.48;2.25;;;;;;;4.58;80.47;101195.56;2053889;28;45991;-73
2022/02/02 06:43:03;;;;;;;23.33;2.67;;;;;;;4.61;80.16;101207.94;2053726;28;46194;-73
2022/02/02 06:44:05;;;;;;;20.48;2.45;;;;;;;4.62;81.13;101209.72;2053669;28;45880;-73
2022/02/02 06:45:11;;;;;;;24.08;2.20;;;;;;;4.65;80.67;101215.03;2055226;28;20962;-73
2022/02/02 06:46:13;;;;;;;19.50;2.20;;;;;;;4.64;81.46;101216.81;2054106;28;37078;-72
2022/02/02 06:47:16;;;;;;;25.67;2.45;;;;;;;4.66;80.77;101219.47;2053717;28;46373;-73
2022/02/02 06:48:20;;;;;;;22.58;2.38;;;;;;;4.67;81.59;101224.78;2054406;28;43811;-73
2022/02/02 06:49:22;;;;;;;26.27;2.72;;;;;;;4.66;81.28;101230.06;2055082;28;44761;-72
2022/02/02 06:50:29;;;;;;;24.75;2.42;;;;;;;4.66;80.37;101240.69;2055729;28;44241;-73
2022/02/02 06:51:36;;;;;;;20.88;2.08;;;;;;;4.72;80.75;101236.31;2054935;28;45065;-74
2022/02/02 06:54:31;;;;;;;18.42;2.22;;;;;;;4.59;82.82;101227.41;2056030;28;43242;-74
2022/02/02 06:55:47;;;;;;;23.23;2.38;;;;;;;4.47;83.05;101229.06;2056016;28;42926;-74
2022/02/02 06:57:06;;;;;;;23.88;2.53;;;;;;;4.45;83.25;101230.81;2055992;28;45658;-73
2022/02/02 06:58:33;;;;;;;18.20;2.13;;;;;;;4.39;82.74;101229.00;2055371;28;43885;-73
2022/02/02 07:02:14;;;;;;;19.92;2.10;;;;;;;4.20;83.45;101228.88;2054838;28;45568;-74
2022/02/02 07:03:39;;;;;;;18.63;2.05;;;;;;;4.20;83.74;101217.41;2055657;28;46069;-73
2022/02/02 07:06:56;;;;;;;22.50;2.15;;;;;;;4.17;84.13;101247.41;2055652;28;46453;-74
2022/02/02 07:08:31;;;;;;;25.20;2.55;;;;;;;4.08;84.06;101242.03;2047352;28;44273;-73
2022/02/02 07:11:09;;;;;;;22.13;2.08;;;;;;;4.08;83.75;101252.63;2055273;28;46047;-73
2022/02/02 07:12:25;;;;;;;18.42;2.03;;;;;;;4.11;84.68;101263.25;2055551;28;42673;-74
2022/02/02 07:16:16;;;;;;;23.05;2.80;;;;;;;4.12;83.22;101261.50;2056053;28;45435;-73
2022/02/02 07:17:44;;;;;;;17.40;2.22;;;;;;;4.14;84.72;101278.28;2055200;28;43764;-73
2022/02/02 07:22:57;;;;;;;23.48;2.50;;;;;;;4.30;86.10;101296.09;2048395;28;43260;-69
2022/02/02 07:24:06;;;;;;;21.20;2.05;;;;;;;4.49;83.65;101297.16;2047756;28;21491;-67
2022/02/02 07:27:40;;;;;;;24.63;2.47;;;;;;;4.69;82.04;101277.84;2049542;28;43810;-72
2022/02/02 07:28:56;;;;;;;18.08;2.45;;;;;;;4.63;82.69;101288.38;2055178;28;37698;-72
2022/02/02 07:30:19;;;;;;;20.15;2.08;;;;;;;4.61;83.46;101292.81;2054852;28;46650;-72
2022/02/02 07:32:41;;;;;;;18.35;2.45;;;;;;;4.47;82.83;101298.91;2055827;28;45733;-72
2022/02/02 07:33:47;;;;;;;23.05;2.50;;;;;;;4.50;83.25;101306.84;2055601;28;44744;-72
2022/02/02 07:36:28;;;;;;;20.15;2.78;;;;;;;4.52;82.82;101297.19;2054416;28;43568;-73
2022/02/02 07:37:33;;;;;;;20.20;2.22;;;;;;;4.52;82.79;101313.09;2055137;28;43724;-72
2022/02/02 07:39:04;;;;;;;20.95;2.20;;;;;;;4.50;82.53;101312.16;2056933;28;20043;-72
2022/02/02 07:40:09;;;;;;;20.77;2.28;;;;;;;4.48;81.60;101321.88;2055395;28;45444;-72
2022/02/02 07:41:24;;;;;;;21.30;2.08;;;;;;;4.56;81.12;101311.34;2055337;28;45299;-73
2022/02/02 07:42:27;;;;;;;21.10;2.30;;;;;;;4.61;81.53;101298.09;2047365;28;26725;-73
2022/02/02 07:43:34;;;;;;;22.20;2.53;;;;;;;4.64;81.48;101311.41;2055062;28;45569;-73
2022/02/02 07:44:39;;;;;;;27.23;3.00;;;;;;;4.63;82.27;101312.25;2045302;28;43273;-73
2022/02/02 07:45:42;;;;;;;15.20;2.35;;;;;;;4.64;81.55;101316.69;2038728;28;45153;-73
2022/02/02 07:46:53;;;;;;;17.63;2.00;;;;;;;4.62;82.05;101311.38;2047683;28;44334;-73
2022/02/02 07:48:03;;;;;;;17.70;2.33;;;;;;;4.59;81.16;101319.31;2055179;28;45441;-72
2022/02/02 07:49:08;;;;;;;19.10;2.25;;;;;;;4.64;81.86;101316.69;2055861;28;46413;-73
2022/02/02 07:50:11;;;;;;;21.50;2.85;;;;;;;4.63;82.35;101321.13;2054743;28;45579;-72
2022/02/02 07:51:14;;;;;;;23.42;2.70;;;;;;;4.60;82.27;101321.09;2054164;28;47510;-73
2022/02/02 07:52:19;;;;;;;24.98;2.75;;;;;;;4.64;81.71;101324.66;2054926;28;45788;-72
2022/02/02 07:53:26;;;;;;;24.83;3.28;;;;;;;4.67;82.28;101322.03;2055745;28;44442;-72
2022/02/02 07:54:37;;;;;;;18.98;1.98;;;;;;;4.70;83.04;101317.63;2055495;28;41658;-72
2022/02/02 07:55:55;;;;;;;19.17;2.38;;;;;;;4.71;83.09;101323.81;2055626;28;45577;-73
2022/02/02 07:56:57;;;;;;;27.42;2.75;;;;;;;4.66;81.97;101326.44;2054592;28;20054;-73
2022/02/02 07:58:01;;;;;;;28.10;3.15;;;;;;;4.71;82.15;101316.75;2055199;28;41950;-72
2022/02/02 07:59:15;;;;;;;17.05;2.05;;;;;;;4.78;81.35;101321.22;2054293;28;46969;-72
2022/02/02 08:00:20;;;;;;;22.65;2.47;;;;;;;4.77;81.73;101322.13;2054815;28;44776;-73
2022/02/02 08:01:23;;;;;;;18.83;2.67;;;;;;;4.80;82.20;101315.06;2056482;28;20032;-72
2022/02/02 08:03:40;;;;;;;24.48;3.40;;;;;;;4.76;82.95;101317.66;2054798;28;43348;-72
2022/02/02 08:04:42;;;;;;;29.33;3.85;;;;;;;4.81;81.51;101325.69;2054880;28;44463;-73
2022/02/02 08:05:49;;;;;;;23.08;2.83;;;;;;;4.84;81.35;101308.88;2055382;28;44598;-73
2022/02/02 08:06:55;;;;;;;26.13;2.90;;;;;;;4.83;81.23;101309.75;2055247;28;44662;-73
2022/02/02 08:08:12;;;;;;;24.55;3.55;;;;;;;4.83;81.47;101309.75;2055018;28;46319;-73
2022/02/02 08:09:23;;;;;;;20.08;2.78;;;;;;;4.84;81.90;101320.38;2055186;28;43413;-73
2022/02/02 08:10:26;;;;;;;24.27;2.70;;;;;;;4.92;81.31;101323.09;2055061;28;45408;-72
2022/02/02 08:11:32;;;;;;;33.92;3.22;;;;;;;4.93;81.68;101319.53;2055071;28;44037;-73
2022/02/02 08:12:57;;;;;;;24.85;2.92;;;;;;;5.03;81.23;101313.44;2055017;28;44534;-76
2022/02/02 08:14:01;;;;;;;21.08;2.25;;;;;;;5.11;81.46;101324.06;2054346;28;44462;-73
2022/02/02 08:15:04;;;;;;;23.38;3.10;;;;;;;5.08;79.99;101329.34;2054492;28;45904;-73
2022/02/02 08:16:11;;;;;;;24.13;2.60;;;;;;;5.12;80.55;101321.44;2055197;28;45118;-73
2022/02/02 08:17:15;;;;;;;19.00;2.08;;;;;;;5.12;80.42;101320.56;2056123;28;20047;-73
2022/02/02 08:18:19;;;;;;;17.70;2.63;;;;;;;5.11;80.57;101326.72;2054970;28;44398;-74
2022/02/02 08:19:23;;;;;;;21.98;2.45;;;;;;;5.11;80.06;101324.94;2055351;28;44085;-72
2022/02/02 08:20:28;;;;;;;25.70;2.78;;;;;;;5.13;79.70;101323.22;2055430;28;44435;-75
2022/02/02 08:21:30;;;;;;;23.75;2.72;;;;;;;5.16;80.92;101331.19;2054514;28;45658;-72
2022/02/02 08:22:31;;;;;;;22.80;2.13;;;;;;;5.14;79.68;101329.41;2054949;28;46372;-72
2022/02/02 08:23:34;;;;;;;22.77;2.45;;;;;;;5.17;80.40;101334.75;2055037;28;45386;-71
2022/02/02 08:24:36;;;;;;;19.30;2.20;;;;;;;5.18;80.03;101341.81;2055363;28;38312;-72
2022/02/02 08:25:42;;;;;;;26.00;2.92;;;;;;;5.17;80.21;101345.38;2056319;28;20929;-72
2022/02/02 08:26:45;;;;;;;20.42;2.08;;;;;;;5.12;80.01;101345.31;2054753;28;46810;-72
2022/02/02 08:27:48;;;;;;;21.58;2.83;;;;;;;5.15;80.27;101344.44;2054482;28;45693;-73
2022/02/02 08:28:52;;;;;;;20.52;2.65;;;;;;;5.17;79.34;101342.72;2054192;28;43338;-71
2022/02/02 08:29:56;;;;;;;21.10;2.30;;;;;;;5.27;80.42;101343.63;2054471;28;45241;-70
2022/02/02 08:31:01;;;;;;;23.77;2.50;;;;;;;5.20;79.71;101344.47;2055406;28;45745;-71
2022/02/02 08:32:04;;;;;;;24.73;2.13;;;;;;;5.14;79.48;101345.34;2049248;28;39456;-76
2022/02/02 08:33:12;;;;;;;19.40;2.28;;;;;;;5.22;80.70;101343.59;2038706;29;44180;-73
2022/02/02 08:34:14;;;;;;;16.58;2.42;;;;;;;5.18;80.26;101344.47;2039787;28;45837;-80
2022/02/02 08:35:21;;;;;;;21.65;2.42;;;;;;;5.25;79.69;101353.34;2046409;28;42958;-75
2022/02/02 08:36:23;;;;;;;19.75;2.45;;;;;;;5.29;79.68;101340.13;2046106;28;44707;-73
2022/02/02 08:37:31;;;;;;;19.48;2.03;;;;;;;5.27;80.41;101349.81;2047258;28;44688;-74
2022/02/02 08:38:43;;;;;;;22.00;2.72;;;;;;;5.28;79.35;101346.28;2046888;28;43057;-72
2022/02/02 08:41:00;;;;;;;19.35;2.63;;;;;;;5.30;79.46;101351.63;2047089;28;46620;-72
2022/02/02 08:42:04;;;;;;;18.80;2.33;;;;;;;5.46;79.91;101349.94;2046133;28;46387;-72
2022/02/02 08:43:12;;;;;;;19.55;2.28;;;;;;;5.55;80.41;101342.88;2045858;28;44341;-72
2022/02/02 08:44:23;;;;;;;16.60;1.92;;;;;;;5.66;80.92;101355.31;2047395;28;45378;-71
2022/02/02 08:45:28;;;;;;;21.08;2.63;;;;;;;5.77;78.32;101352.72;2046683;28;45612;-73
2022/02/02 08:46:34;;;;;;;21.60;2.50;;;;;;;5.71;78.66;101354.47;2046990;28;45094;-72
2022/02/02 08:47:36;;;;;;;18.88;2.58;;;;;;;5.88;78.43;101349.19;2046565;28;44298;-72